KLBE/LBE METAR and TAF weather

Enter ICAO airport designator
Station Type Date Time Source
KLBE METAR 2020/01/23 14:53 UTC NOAA

KLBE 231453Z 00000KT 10SM SKC M03/M06 A3029


Station Type Date Time Source
KLBE Decoded METAR 2020/01/23 14:53 UTC NOAA

Latrobe / Westmorland, PA, United States (KLBE) 40-17N 079-24W
Jan 23, 2020 - 09:53 AM EST / 2020.01.23 1453 UTC
Wind: Calm:0
Visibility: 10 mile(s):0
Sky conditions: clear
Temperature: 26 F (-3 C)
Dew Point: 21 F (-6 C)
Relative Humidity: 79%
Pressure (altimeter): 30.29 in. Hg (1025 hPa)
ob: KLBE 231453Z 00000KT 10SM SKC M03/M06 A3029
cycle: 15

Station Type Date Time Source
KLBE TAF 2020/01/23 12:24 UTC NOAA

TAF KLBE 231122Z 2312/2412 14003KT P6SM OVC200
FM232200 13005KT P6SM OVC100

Example: see airport list